createdAt,value
2016-05-09T00:00:05.386Z,24.71
2016-05-09T00:01:05.387Z,24.73
2016-05-09T00:02:05.453Z,24.73
2016-05-09T00:03:05.254Z,24.73
2016-05-09T00:04:05.412Z,24.76
2016-05-09T00:05:05.462Z,24.76
2016-05-09T00:06:05.276Z,24.73
2016-05-09T00:07:05.498Z,24.8
2016-05-09T00:08:05.454Z,24.78
2016-05-09T00:09:05.473Z,24.73
2016-05-09T00:10:05.397Z,24.65
2016-05-09T00:11:05.368Z,24.67
2016-05-09T00:12:05.292Z,24.68
2016-05-09T00:13:05.483Z,24.68
2016-05-09T00:14:05.611Z,24.76
2016-05-09T00:15:05.598Z,24.69
2016-05-09T00:16:05.397Z,24.71
2016-05-09T00:17:05.494Z,24.73
2016-05-09T00:18:05.589Z,24.69
2016-05-09T00:19:05.358Z,24.71
2016-05-09T00:20:05.345Z,24.73
2016-05-09T00:21:05.520Z,24.76
2016-05-09T00:22:05.570Z,24.69
2016-05-09T00:23:05.541Z,24.76
2016-05-09T00:24:05.388Z,24.71
2016-05-09T00:25:05.562Z,24.64
2016-05-09T00:26:05.549Z,24.67
2016-05-09T00:27:05.613Z,24.68
2016-05-09T00:28:05.617Z,24.62
2016-05-09T00:29:05.885Z,24.68
2016-05-09T00:30:05.560Z,24.62
2016-05-09T00:31:05.641Z,24.67
2016-05-09T00:32:05.456Z,24.64
2016-05-09T00:33:05.584Z,24.68
2016-05-09T00:34:05.602Z,24.65
2016-05-09T00:35:05.635Z,24.71
2016-05-09T00:36:05.607Z,24.73
2016-05-09T00:37:05.626Z,24.68
2016-05-09T00:38:05.659Z,24.77
2016-05-09T00:39:05.459Z,24.77
2016-05-09T00:40:05.618Z,24.77
2016-05-09T00:41:05.637Z,24.68
2016-05-09T00:42:05.654Z,24.73
2016-05-09T00:43:05.642Z,24.68
2016-05-09T00:44:05.754Z,24.71
2016-05-09T00:45:05.663Z,24.64
2016-05-09T00:46:05.680Z,24.69
2016-05-09T00:47:05.668Z,24.68
2016-05-09T00:48:05.670Z,24.68
2016-05-09T00:49:05.689Z,24.73
2016-05-09T00:50:05.691Z,24.64
2016-05-09T00:51:05.554Z,24.65
2016-05-09T00:52:05.713Z,24.68
2016-05-09T00:53:05.559Z,24.73
2016-05-09T00:54:05.718Z,24.65
2016-05-09T00:55:05.564Z,24.65
2016-05-09T00:56:05.739Z,24.67
2016-05-09T00:57:05.585Z,24.71
2016-05-09T00:58:05.760Z,24.62
2016-05-09T00:59:05.763Z,24.69
2016-05-09T01:00:05.766Z,24.67
2016-05-09T01:01:05.784Z,24.73
2016-05-09T01:02:05.771Z,24.77
2016-05-09T01:03:05.774Z,24.67
2016-05-09T01:04:05.776Z,24.65
2016-05-09T01:05:05.826Z,24.69
2016-05-09T01:06:05.813Z,24.68
2016-05-09T01:07:05.643Z,24.71
2016-05-09T01:08:05.803Z,24.71
2016-05-09T01:09:05.820Z,24.73
2016-05-09T01:10:05.824Z,24.65
2016-05-09T01:11:05.827Z,24.62
2016-05-09T01:12:05.829Z,24.6
2016-05-09T01:13:05.847Z,24.6
2016-05-09T01:14:05.850Z,24.6
2016-05-09T01:15:05.867Z,24.67
2016-05-09T01:16:05.871Z,24.69
2016-05-09T01:17:05.874Z,24.65
2016-05-09T01:18:05.876Z,24.67
2016-05-09T01:19:05.879Z,24.61
2016-05-09T01:20:05.741Z,24.64
2016-05-09T01:21:05.900Z,24.62
2016-05-09T01:22:05.902Z,24.57
2016-05-09T01:23:05.906Z,24.61
2016-05-09T01:24:05.924Z,24.61
2016-05-09T01:25:05.927Z,24.58
2016-05-09T01:26:05.772Z,24.57
2016-05-09T01:27:05.932Z,24.58
2016-05-09T01:28:05.950Z,24.58
2016-05-09T01:29:05.797Z,24.53
2016-05-09T01:30:05.971Z,24.67
2016-05-09T01:31:05.958Z,24.64
2016-05-09T01:32:05.992Z,24.65
2016-05-09T01:33:05.979Z,24.53
2016-05-09T01:34:05.826Z,24.58
2016-05-09T01:35:06.001Z,24.61
2016-05-09T01:36:05.831Z,24.55
2016-05-09T01:37:06.006Z,24.52
2016-05-09T01:38:05.851Z,24.55
2016-05-09T01:39:06.012Z,24.58
2016-05-09T01:40:06.030Z,24.57
2016-05-09T01:41:06.032Z,24.57
2016-05-09T01:42:06.035Z,24.57
2016-05-09T01:43:06.037Z,24.57
2016-05-09T01:44:05.805Z,24.53
2016-05-09T01:45:05.903Z,24.53
2016-05-09T01:46:06.076Z,24.53
2016-05-09T01:47:06.064Z,24.53
2016-05-09T01:48:06.082Z,24.62
2016-05-09T01:49:06.084Z,24.47
2016-05-09T01:50:06.087Z,24.53
2016-05-09T01:51:06.105Z,24.53
2016-05-09T01:52:05.953Z,24.52
2016-05-09T01:53:06.111Z,24.55
2016-05-09T01:54:06.114Z,24.53
2016-05-09T01:55:06.116Z,24.61
2016-05-09T01:56:06.135Z,24.57
2016-05-09T01:57:06.138Z,24.52
2016-05-09T01:58:06.156Z,24.61
2016-05-09T01:59:06.440Z,24.57
2016-05-09T02:00:06.146Z,24.52
2016-05-09T02:01:06.163Z,24.57
2016-05-09T02:02:06.182Z,24.55
2016-05-09T02:03:06.169Z,24.57
2016-05-09T02:04:06.032Z,24.52
2016-05-09T02:05:06.191Z,24.57
2016-05-09T02:06:06.193Z,24.57
2016-05-09T02:07:06.195Z,24.58
2016-05-09T02:08:06.214Z,24.62
2016-05-09T02:09:06.218Z,24.57
2016-05-09T02:10:06.220Z,24.55
2016-05-09T02:11:06.238Z,24.57
2016-05-09T02:12:06.225Z,24.6
2016-05-09T02:13:06.228Z,24.52
2016-05-09T02:14:06.230Z,24.58
2016-05-09T02:15:06.265Z,24.58
2016-05-09T02:16:06.267Z,24.55
2016-05-09T02:17:06.270Z,24.62
2016-05-09T02:18:06.287Z,24.58
2016-05-09T02:19:06.290Z,24.67
2016-05-09T02:20:06.121Z,24.62
2016-05-09T02:21:06.295Z,24.55
2016-05-09T02:22:06.298Z,24.55
2016-05-09T02:23:06.317Z,24.55
2016-05-09T02:24:06.310Z,24.61
2016-05-09T02:25:06.313Z,24.61
2016-05-09T02:26:06.331Z,24.57
2016-05-09T02:27:06.335Z,24.53
2016-05-09T02:28:06.182Z,24.6
2016-05-09T02:29:06.793Z,24.61
2016-05-09T02:30:06.357Z,24.57
2016-05-09T02:31:06.204Z,24.53
2016-05-09T02:32:06.363Z,24.55
2016-05-09T02:33:06.382Z,24.53
2016-05-09T02:34:06.244Z,24.57
2016-05-09T02:35:06.231Z,24.53
2016-05-09T02:36:06.390Z,24.6
2016-05-09T02:37:06.392Z,24.53
2016-05-09T02:38:06.254Z,24.53
2016-05-09T02:39:06.414Z,24.57
2016-05-09T02:40:06.417Z,24.53
2016-05-09T02:41:06.278Z,24.57
2016-05-09T02:42:06.265Z,24.61
2016-05-09T02:43:06.268Z,24.53
2016-05-09T02:44:06.286Z,24.52
2016-05-09T02:45:06.445Z,24.49
2016-05-09T02:46:06.448Z,24.57
2016-05-09T02:47:06.466Z,24.57
2016-05-09T02:48:06.469Z,24.53
2016-05-09T02:49:06.488Z,24.53
2016-05-09T02:50:06.491Z,24.49
2016-05-09T02:51:06.493Z,24.47
2016-05-09T02:52:06.496Z,24.53
2016-05-09T02:53:06.498Z,24.49
2016-05-09T02:54:06.516Z,24.5
2016-05-09T02:55:06.362Z,24.52
2016-05-09T02:56:06.522Z,24.55
2016-05-09T02:57:06.368Z,24.55
2016-05-09T02:58:06.387Z,24.57
2016-05-09T02:59:06.717Z,24.5
2016-05-09T03:00:06.549Z,24.57
2016-05-09T03:01:06.395Z,24.58
2016-05-09T03:02:06.554Z,24.53
2016-05-09T03:03:06.415Z,24.53
2016-05-09T03:04:06.574Z,24.49
2016-05-09T03:05:06.576Z,24.5
2016-05-09T03:06:06.595Z,24.5
2016-05-09T03:07:06.582Z,24.57
2016-05-09T03:08:06.601Z,24.58
2016-05-09T03:09:06.603Z,24.49
2016-05-09T03:10:06.466Z,24.5
2016-05-09T03:11:06.468Z,24.5
2016-05-09T03:12:06.470Z,24.55
2016-05-09T03:13:06.630Z,24.5
2016-05-09T03:14:06.976Z,24.49
2016-05-09T03:15:06.636Z,24.47
2016-05-09T03:16:06.653Z,24.49
2016-05-09T03:17:06.656Z,24.52
2016-05-09T03:18:06.675Z,24.52
2016-05-09T03:19:06.505Z,24.5
2016-05-09T03:20:06.680Z,24.53
2016-05-09T03:21:06.683Z,24.47
2016-05-09T03:22:06.545Z,24.5
2016-05-09T03:23:06.704Z,24.47
2016-05-09T03:24:06.707Z,24.49
2016-05-09T03:25:06.552Z,24.47
2016-05-09T03:26:06.727Z,24.45
2016-05-09T03:27:06.715Z,24.5
2016-05-09T03:28:06.718Z,24.47
2016-05-09T03:29:06.580Z,24.47
2016-05-09T03:30:06.769Z,24.5
2016-05-09T03:31:06.585Z,24.47
2016-05-09T03:32:06.759Z,24.49
2016-05-09T03:33:06.606Z,24.47
2016-05-09T03:34:06.764Z,24.52
2016-05-09T03:35:06.768Z,24.46
2016-05-09T03:36:06.785Z,24.46
2016-05-09T03:37:06.773Z,24.45
2016-05-09T03:38:06.806Z,24.47
2016-05-09T03:39:06.810Z,24.43
2016-05-09T03:40:06.640Z,24.49
2016-05-09T03:41:06.815Z,24.45
2016-05-09T03:42:06.817Z,24.46
2016-05-09T03:43:06.836Z,24.47
2016-05-09T03:44:07.166Z,24.4
2016-05-09T03:45:06.842Z,24.49
2016-05-09T03:46:06.844Z,24.49
2016-05-09T03:47:06.847Z,24.5
2016-05-09T03:48:06.536Z,24.45
2016-05-09T03:49:06.867Z,24.43
2016-05-09T03:50:06.870Z,24.5
2016-05-09T03:51:08.138Z,24.46
2016-05-09T03:52:06.891Z,24.49
2016-05-09T03:53:06.894Z,24.49
2016-05-09T03:54:06.896Z,24.43
2016-05-09T03:55:06.899Z,24.57
2016-05-09T03:56:06.918Z,24.47
2016-05-09T03:57:06.921Z,24.45
2016-05-09T03:58:06.923Z,24.47
2016-05-09T03:59:07.191Z,24.43
2016-05-09T04:00:06.928Z,24.49
2016-05-09T04:01:06.947Z,24.49
2016-05-09T04:02:06.793Z,24.47
2016-05-09T04:03:06.952Z,24.46
2016-05-09T04:04:06.970Z,24.47
2016-05-09T04:05:06.973Z,24.46
2016-05-09T04:06:06.975Z,24.45
2016-05-09T04:07:06.979Z,24.46
2016-05-09T04:08:06.996Z,24.47
2016-05-09T04:09:06.984Z,24.46
2016-05-09T04:10:06.986Z,24.5
2016-05-09T04:11:07.004Z,24.47
2016-05-09T04:12:06.850Z,24.4
2016-05-09T04:13:07.026Z,24.45
2016-05-09T04:14:07.342Z,24.49
2016-05-09T04:15:07.047Z,24.4
2016-05-09T04:16:07.033Z,24.47
2016-05-09T04:17:06.880Z,24.53
2016-05-09T04:18:07.055Z,24.45
2016-05-09T04:19:06.901Z,24.5
2016-05-09T04:20:07.061Z,24.5
2016-05-09T04:21:07.078Z,24.47
2016-05-09T04:22:07.080Z,24.43
2016-05-09T04:23:07.083Z,24.47
2016-05-09T04:24:07.086Z,24.47
2016-05-09T04:25:07.121Z,24.49
2016-05-09T04:26:07.108Z,24.47
2016-05-09T04:27:07.110Z,24.52
2016-05-09T04:28:06.957Z,24.53
2016-05-09T04:29:07.132Z,24.53
2016-05-09T04:30:07.134Z,24.5
2016-05-09T04:31:07.152Z,24.53
2016-05-09T04:32:07.140Z,24.46
2016-05-09T04:33:07.142Z,24.57
2016-05-09T04:34:07.160Z,24.57
2016-05-09T04:35:07.163Z,24.53
2016-05-09T04:36:07.165Z,24.55
2016-05-09T04:37:07.012Z,24.58
2016-05-09T04:38:07.187Z,24.62
2016-05-09T04:39:07.034Z,24.68
2016-05-09T04:40:07.036Z,24.65
2016-05-09T04:41:07.210Z,24.68
2016-05-09T04:42:07.197Z,24.83
2016-05-09T04:43:07.215Z,24.8
2016-05-09T04:44:07.218Z,24.69
2016-05-09T04:45:07.081Z,24.71
2016-05-09T04:46:07.240Z,24.9
2016-05-09T04:47:07.242Z,24.8
2016-05-09T04:48:07.260Z,24.88
2016-05-09T04:49:07.247Z,24.96
2016-05-09T04:50:07.267Z,24.88
2016-05-09T04:51:07.268Z,24.91
2016-05-09T04:52:07.272Z,24.96
2016-05-09T04:53:07.133Z,24.91
2016-05-09T04:54:07.277Z,25.06
2016-05-09T04:55:07.310Z,25.13
2016-05-09T04:56:07.298Z,25.1
2016-05-09T04:57:07.332Z,25.2
2016-05-09T04:58:07.163Z,25.17
2016-05-09T04:59:08.321Z,25.09
2016-05-09T05:00:07.183Z,25.23
2016-05-09T05:01:07.342Z,25.28
2016-05-09T05:02:07.346Z,25.32
2016-05-09T05:03:07.223Z,25.42
2016-05-09T05:04:07.366Z,25.33
2016-05-09T05:05:07.384Z,25.33
2016-05-09T05:06:07.387Z,25.36
2016-05-09T05:07:07.390Z,25.38
2016-05-09T05:08:07.408Z,25.42
2016-05-09T05:09:07.410Z,25.46
2016-05-09T05:10:07.273Z,25.46
2016-05-09T05:11:07.432Z,25.47
2016-05-09T05:12:07.434Z,25.55
2016-05-09T05:13:07.453Z,25.47
2016-05-09T05:14:07.784Z,25.58
2016-05-09T05:15:07.458Z,25.57
2016-05-09T05:16:07.476Z,25.58
2016-05-09T05:17:07.494Z,25.7
2016-05-09T05:18:07.482Z,25.69
2016-05-09T05:19:07.516Z,25.76
2016-05-09T05:20:07.503Z,25.73
2016-05-09T05:21:07.521Z,25.72
2016-05-09T05:22:07.524Z,25.76
2016-05-09T05:23:07.541Z,25.82
2016-05-09T05:24:07.545Z,25.73
2016-05-09T05:25:07.564Z,25.79
2016-05-09T05:26:07.566Z,25.85
2016-05-09T05:27:07.583Z,25.82
2016-05-09T05:28:07.446Z,25.76
2016-05-09T05:29:08.402Z,25.82
2016-05-09T05:30:07.608Z,25.85
2016-05-09T05:31:07.611Z,25.87
2016-05-09T05:32:07.472Z,25.88
2016-05-09T05:33:07.646Z,25.87
2016-05-09T05:34:07.649Z,25.91
2016-05-09T05:35:07.668Z,25.95
2016-05-09T05:36:07.671Z,25.87
2016-05-09T05:37:07.674Z,25.91
2016-05-09T05:38:07.692Z,25.98
2016-05-09T05:39:07.554Z,26.02
2016-05-09T05:40:07.556Z,26.05
2016-05-09T05:41:07.575Z,25.98
2016-05-09T05:42:07.734Z,26.01
2016-05-09T05:43:07.752Z,25.99
2016-05-09T05:44:07.754Z,25.99
2016-05-09T05:45:07.773Z,26.12
2016-05-09T05:46:07.776Z,26.09
2016-05-09T05:47:07.795Z,26.07
2016-05-09T05:48:07.797Z,26.12
2016-05-09T05:49:07.800Z,26.13
2016-05-09T05:50:07.817Z,26.15
2016-05-09T05:51:07.820Z,26.07
2016-05-09T05:52:07.838Z,26.15
2016-05-09T05:53:07.857Z,26.28
2016-05-09T05:54:07.861Z,26.28
2016-05-09T05:55:07.878Z,26.37
2016-05-09T05:56:07.881Z,26.35
2016-05-09T05:57:07.883Z,26.44
2016-05-09T05:58:07.902Z,26.48
2016-05-09T05:59:07.982Z,26.48
2016-05-09T06:00:07.766Z,26.57
2016-05-09T06:01:07.828Z,26.57
2016-05-09T06:02:08.031Z,26.51
2016-05-09T06:03:08.093Z,26.63
2016-05-09T06:04:08.155Z,26.65
2016-05-09T06:05:08.046Z,26.67
2016-05-09T06:06:08.080Z,26.75
2016-05-09T06:07:08.239Z,26.69
2016-05-09T06:08:08.116Z,26.69
2016-05-09T06:09:08.307Z,26.73
2016-05-09T06:10:08.326Z,26.75
2016-05-09T06:11:08.349Z,26.81
2016-05-09T06:12:08.373Z,26.8
2016-05-09T06:13:08.382Z,26.82
2016-05-09T06:14:08.458Z,26.89
2016-05-09T06:15:08.263Z,26.88
2016-05-09T06:16:08.268Z,26.84
2016-05-09T06:17:08.460Z,26.8
2016-05-09T06:18:08.465Z,26.92
2016-05-09T06:19:08.485Z,26.92
2016-05-09T06:20:08.489Z,26.89
2016-05-09T06:21:08.508Z,26.95
2016-05-09T06:22:08.512Z,27.07
2016-05-09T06:23:08.530Z,27.07
2016-05-09T06:24:08.533Z,27.02
2016-05-09T06:25:08.537Z,27.06
2016-05-09T06:26:08.556Z,27.07
2016-05-09T06:27:08.575Z,27.09
2016-05-09T06:28:08.593Z,27.07
2016-05-09T06:29:08.595Z,27.04
2016-05-09T06:30:08.598Z,27.04
2016-05-09T06:31:08.633Z,27.13
2016-05-09T06:32:08.619Z,27.12
2016-05-09T06:33:08.637Z,27.13
2016-05-09T06:34:08.655Z,27.1
2016-05-09T06:35:08.658Z,27.18
2016-05-09T06:36:08.521Z,27.17
2016-05-09T06:37:08.539Z,27.1
2016-05-09T06:38:08.697Z,27.12
2016-05-09T06:39:08.700Z,27.12
2016-05-09T06:40:08.719Z,27.13
2016-05-09T06:41:08.737Z,27.19
2016-05-09T06:42:08.583Z,27.24
2016-05-09T06:43:08.774Z,27.25
2016-05-09T06:44:09.010Z,27.31
2016-05-09T06:45:08.780Z,27.25
2016-05-09T06:46:08.798Z,27.34
2016-05-09T06:47:08.644Z,27.25
2016-05-09T06:48:08.818Z,27.25
2016-05-09T06:49:08.837Z,27.24
2016-05-09T06:50:08.840Z,27.31
2016-05-09T06:51:08.857Z,27.41
2016-05-09T06:52:08.860Z,27.32
2016-05-09T06:53:08.878Z,27.46
2016-05-09T06:54:08.897Z,27.39
2016-05-09T06:55:08.900Z,27.41
2016-05-09T06:56:08.903Z,27.37
2016-05-09T06:57:08.921Z,27.43
2016-05-09T06:58:08.939Z,27.51
2016-05-09T06:59:08.801Z,27.55
2016-05-09T07:00:08.961Z,27.59
2016-05-09T07:01:08.978Z,27.51
2016-05-09T07:02:08.981Z,27.51
2016-05-09T07:03:08.999Z,27.51
2016-05-09T07:04:09.017Z,27.54
2016-05-09T07:05:08.880Z,27.51
2016-05-09T07:06:09.038Z,27.63
2016-05-09T07:07:08.901Z,27.51
2016-05-09T07:08:09.075Z,27.66
2016-05-09T07:09:08.906Z,27.63
2016-05-09T07:10:09.080Z,27.57
2016-05-09T07:11:09.099Z,27.55
2016-05-09T07:12:09.118Z,27.67
2016-05-09T07:13:09.121Z,27.66
2016-05-09T07:14:09.077Z,27.63
2016-05-09T07:15:09.001Z,27.69
2016-05-09T07:16:09.160Z,27.69
2016-05-09T07:17:09.021Z,27.63
2016-05-09T07:18:09.196Z,27.66
2016-05-09T07:19:09.058Z,27.66
2016-05-09T07:20:09.217Z,27.65
2016-05-09T07:21:09.220Z,27.57
2016-05-09T07:22:09.238Z,27.63
2016-05-09T07:23:09.256Z,27.55
2016-05-09T07:24:09.275Z,27.51
2016-05-09T07:25:09.278Z,27.32
2016-05-09T07:26:09.281Z,27.14
2016-05-09T07:27:09.142Z,26.94
2016-05-09T07:28:09.161Z,26.85
2016-05-09T07:29:09.304Z,26.8
2016-05-09T07:30:09.323Z,26.72
2016-05-09T07:31:09.340Z,26.62
2016-05-09T07:32:09.358Z,26.6
2016-05-09T07:33:09.378Z,26.5
2016-05-09T07:34:09.395Z,26.48
2016-05-09T07:35:09.398Z,26.35
2016-05-09T07:36:09.245Z,26.37
2016-05-09T07:37:09.419Z,26.37
2016-05-09T07:38:09.109Z,26.3
2016-05-09T07:39:09.441Z,26.32
2016-05-09T07:40:09.443Z,26.32
2016-05-09T07:41:09.446Z,26.3
2016-05-09T07:42:09.464Z,26.28
2016-05-09T07:43:09.466Z,26.25
2016-05-09T07:44:09.641Z,26.28
2016-05-09T07:45:09.488Z,26.13
2016-05-09T07:46:09.334Z,26.2
2016-05-09T07:47:09.508Z,26.18
2016-05-09T07:48:09.527Z,26.29
2016-05-09T07:49:09.373Z,26.26
2016-05-09T07:50:09.736Z,26.2
2016-05-09T07:51:09.384Z,26.26
2016-05-09T07:52:09.543Z,26.32
2016-05-09T07:53:09.562Z,26.28
2016-05-09T07:54:09.579Z,26.29
2016-05-09T07:55:09.577Z,26.36
2016-05-09T07:56:09.610Z,26.33
2016-05-09T07:57:09.597Z,26.35
2016-05-09T07:58:09.599Z,26.3
2016-05-09T07:59:09.462Z,26.28
2016-05-09T08:00:09.621Z,26.35
2016-05-09T08:01:09.466Z,26.32
2016-05-09T08:02:09.626Z,26.26
2016-05-09T08:03:09.644Z,26.28
2016-05-09T08:04:09.662Z,26.29
2016-05-09T08:05:13.446Z,26.23
2016-05-09T08:06:27.855Z,26.28
2016-05-09T08:07:19.514Z,26.3
2016-05-09T08:08:13.314Z,26.26
2016-05-09T08:09:28.285Z,26.28
2016-05-09T08:10:17.991Z,26.23
2016-05-09T08:11:14.463Z,26.25
2016-05-09T08:12:18.496Z,26.21
2016-05-09T08:13:09.734Z,26.2
2016-05-09T08:14:09.736Z,26.2
2016-05-09T08:15:09.739Z,26.18
2016-05-09T08:16:09.601Z,26.2
2016-05-09T08:17:09.760Z,26.17
2016-05-09T08:18:09.763Z,26.09
2016-05-09T08:19:09.797Z,26.12
2016-05-09T08:20:09.783Z,26.1
2016-05-09T08:21:09.803Z,26.12
2016-05-09T08:22:09.648Z,26.1
2016-05-09T08:23:09.650Z,26.09
2016-05-09T08:24:09.811Z,26.15
2016-05-09T08:25:09.829Z,26.15
2016-05-09T08:26:09.831Z,26.13
2016-05-09T08:27:09.678Z,26.09
2016-05-09T08:28:09.868Z,26.17
2016-05-09T08:29:09.871Z,26.06
2016-05-09T08:30:09.545Z,26.07
2016-05-09T08:31:09.876Z,26.1
2016-05-09T08:32:09.722Z,26.06
2016-05-09T08:33:09.585Z,26.01
2016-05-09T08:34:09.899Z,26.1
2016-05-09T08:35:09.902Z,25.97
2016-05-09T08:36:09.921Z,25.97
2016-05-09T08:37:09.924Z,25.94
2016-05-09T08:38:09.926Z,25.99
2016-05-09T08:39:09.943Z,25.98
2016-05-09T08:40:09.946Z,25.97
2016-05-09T08:41:09.950Z,25.97
2016-05-09T08:42:09.984Z,25.99
2016-05-09T08:43:09.971Z,25.97
2016-05-09T08:44:09.661Z,26.02
2016-05-09T08:45:09.976Z,26.07
2016-05-09T08:46:09.995Z,25.97
2016-05-09T08:47:10.028Z,26.02
2016-05-09T08:48:10.015Z,26.02
2016-05-09T08:49:10.018Z,26.02
2016-05-09T08:50:10.036Z,25.94
2016-05-09T08:51:10.039Z,25.95
2016-05-09T08:52:10.104Z,25.95
2016-05-09T08:53:10.045Z,26.01
2016-05-09T08:54:10.047Z,25.97
2016-05-09T08:55:10.066Z,25.95
2016-05-09T08:56:10.069Z,26.01
2016-05-09T08:57:10.071Z,26.01
2016-05-09T08:58:10.089Z,25.99
2016-05-09T08:59:09.795Z,26.07
2016-05-09T09:00:10.110Z,26.01
2016-05-09T09:01:10.113Z,26.01
2016-05-09T09:02:10.116Z,25.97
2016-05-09T09:03:10.118Z,25.97
2016-05-09T09:04:10.152Z,26.01
2016-05-09T09:05:10.139Z,26.01
2016-05-09T09:06:10.157Z,25.97
2016-05-09T09:07:10.160Z,25.98
2016-05-09T09:08:10.178Z,25.95
2016-05-09T09:09:10.182Z,25.87
2016-05-09T09:10:10.184Z,25.9
2016-05-09T09:11:10.186Z,25.9
2016-05-09T09:12:10.204Z,25.85
2016-05-09T09:13:10.208Z,25.88
2016-05-09T09:14:10.851Z,25.88
2016-05-09T09:15:10.073Z,25.87
2016-05-09T09:16:10.091Z,25.9
2016-05-09T09:17:10.250Z,25.95
2016-05-09T09:18:10.096Z,25.6
2016-05-09T09:19:10.240Z,25.46
2016-05-09T09:20:10.258Z,25.62
2016-05-09T09:21:10.261Z,25.5
2016-05-09T09:22:10.263Z,25.72
2016-05-09T09:23:10.109Z,25.83
2016-05-09T09:24:10.112Z,25.03
2016-05-09T09:25:10.272Z,24.46
2016-05-09T09:26:10.274Z,24.62
2016-05-09T09:27:10.292Z,24.76
2016-05-09T09:28:10.280Z,25
2016-05-09T09:29:10.422Z,25.14
2016-05-09T09:30:10.285Z,25.21
2016-05-09T09:31:10.287Z,24.96
2016-05-09T09:32:10.291Z,25.02
2016-05-09T09:33:10.293Z,24.98
2016-05-09T09:34:10.296Z,25.08
2016-05-09T09:35:10.314Z,25.23
2016-05-09T09:36:10.316Z,25.08
2016-05-09T09:37:10.304Z,25.21
2016-05-09T09:38:10.307Z,25.36
2016-05-09T09:39:10.309Z,25.27
2016-05-09T09:40:10.312Z,25.15
2016-05-09T09:41:10.174Z,25.25
2016-05-09T09:42:10.145Z,25.38
2016-05-09T09:43:10.320Z,25.38
2016-05-09T09:44:10.165Z,25.32
2016-05-09T09:45:10.326Z,25.2
2016-05-09T09:46:10.171Z,24.99
2016-05-09T09:47:10.298Z,24.45
2016-05-09T09:48:10.318Z,24.62
2016-05-09T09:49:10.320Z,24.65
2016-05-09T09:50:10.167Z,24.83
2016-05-09T09:51:10.325Z,24.73
2016-05-09T09:52:10.156Z,25.03
2016-05-09T09:53:10.315Z,25.06
2016-05-09T09:54:10.318Z,25.21
2016-05-09T09:55:10.321Z,25.25
2016-05-09T09:56:10.323Z,25.24
2016-05-09T09:57:10.170Z,25.24
2016-05-09T09:58:10.328Z,25.14
2016-05-09T09:59:10.331Z,24.9
2016-05-09T10:00:10.177Z,24.81
2016-05-09T10:01:10.336Z,25.08
2016-05-09T10:02:10.387Z,25.21
2016-05-09T10:03:10.327Z,25.23
2016-05-09T10:04:10.330Z,25.03
2016-05-09T10:05:10.333Z,24.91
2016-05-09T10:06:10.350Z,24.98
2016-05-09T10:07:10.337Z,24.91
2016-05-09T10:08:10.340Z,24.83
2016-05-09T10:09:10.343Z,25.03
2016-05-09T10:10:10.360Z,25.06
2016-05-09T10:11:10.348Z,25
2016-05-09T10:12:10.398Z,25.08
2016-05-09T10:13:10.354Z,25.08
2016-05-09T10:14:10.497Z,24.78
2016-05-09T10:15:10.202Z,25.13
2016-05-09T10:16:10.346Z,25.27
2016-05-09T10:17:10.349Z,25.09
2016-05-09T10:18:10.367Z,25.09
2016-05-09T10:19:10.354Z,25.1
2016-05-09T10:20:10.357Z,25.24
2016-05-09T10:21:10.359Z,25.09
2016-05-09T10:22:10.346Z,25.09
2016-05-09T10:23:10.365Z,25.25
2016-05-09T10:24:10.367Z,25.45
2016-05-09T10:25:10.354Z,25.54
2016-05-09T10:26:10.389Z,25.55
2016-05-09T10:27:10.219Z,25.6
2016-05-09T10:28:10.362Z,25.73
2016-05-09T10:29:10.319Z,25.23
2016-05-09T10:30:10.368Z,24.93
2016-05-09T10:31:10.370Z,24.8
2016-05-09T10:32:10.373Z,25.02
2016-05-09T10:33:10.219Z,25.1
2016-05-09T10:34:10.379Z,25.39
2016-05-09T10:35:10.397Z,25.47
2016-05-09T10:36:10.384Z,25.45
2016-05-09T10:37:10.527Z,25.32
2016-05-09T10:38:10.389Z,25.38
2016-05-09T10:39:10.376Z,25.23
2016-05-09T10:40:10.394Z,25.27
2016-05-09T10:41:10.397Z,25.23
2016-05-09T10:42:10.385Z,25.39
2016-05-09T10:43:10.388Z,25.57
2016-05-09T10:44:10.265Z,25.54
2016-05-09T10:45:10.393Z,25.58
2016-05-09T10:46:10.395Z,25.6
2016-05-09T10:47:10.382Z,25.6
2016-05-09T10:48:10.401Z,25.46
2016-05-09T10:49:10.232Z,25.14
2016-05-09T10:50:10.406Z,25.32
2016-05-09T10:51:10.393Z,25.24
2016-05-09T10:52:10.395Z,25.33
2016-05-09T10:53:10.258Z,25.45
2016-05-09T10:54:10.401Z,25.61
2016-05-09T10:55:10.404Z,25.73
2016-05-09T10:56:10.407Z,25.83
2016-05-09T10:57:10.425Z,25.77
2016-05-09T10:58:10.272Z,25.85
2016-05-09T10:59:12.008Z,25.87
2016-05-09T11:00:10.448Z,25.77
2016-05-09T11:01:10.436Z,25.79
2016-05-09T11:02:24.375Z,25.6
2016-05-09T11:03:10.285Z,25.62
2016-05-09T11:04:10.288Z,25.85
2016-05-09T11:05:10.430Z,25.83
2016-05-09T11:06:10.449Z,25.67
2016-05-09T11:07:10.452Z,25.7
2016-05-09T11:08:10.439Z,25.83
2016-05-09T11:09:10.457Z,25.7
2016-05-09T11:10:10.460Z,25.52
2016-05-09T11:11:10.462Z,25.36
2016-05-09T11:12:10.324Z,25.42
2016-05-09T11:13:10.453Z,25.6
2016-05-09T11:14:11.955Z,25.47
2016-05-09T11:15:10.302Z,25.61
2016-05-09T11:16:10.476Z,25.64
2016-05-09T11:17:10.478Z,25.65
2016-05-09T11:18:10.496Z,25.67
2016-05-09T11:19:10.312Z,25.82
2016-05-09T11:20:10.487Z,25.61
2016-05-09T11:21:10.473Z,25.82
2016-05-09T11:22:10.476Z,25.85
2016-05-09T11:23:10.479Z,25.45
2016-05-09T11:24:10.467Z,25.52
2016-05-09T11:25:10.485Z,25.62
2016-05-09T11:26:10.472Z,25.62
2016-05-09T11:27:10.490Z,25.58
2016-05-09T11:28:10.493Z,25.6
2016-05-09T11:29:10.683Z,25.45
2016-05-09T11:30:10.497Z,25.38
2016-05-09T11:31:10.345Z,25.45
2016-05-09T11:32:10.503Z,25.4
2016-05-09T11:33:10.506Z,25.47
2016-05-09T11:34:10.493Z,25.57
2016-05-09T11:35:10.511Z,25.4
2016-05-09T11:36:10.499Z,25.4
2016-05-09T11:37:10.345Z,25.33
2016-05-09T11:38:10.505Z,25.47
2016-05-09T11:39:10.507Z,25.61
2016-05-09T11:40:10.494Z,25.61
2016-05-09T11:41:10.513Z,25.46
2016-05-09T11:42:10.515Z,25.65
2016-05-09T11:43:10.346Z,25.42
2016-05-09T11:44:10.724Z,25.47
2016-05-09T11:45:10.507Z,25.62
2016-05-09T11:46:10.354Z,25.73
2016-05-09T11:47:10.356Z,25.69
2016-05-09T11:48:10.516Z,25.54
2016-05-09T11:49:10.502Z,25.69
2016-05-09T11:50:10.520Z,25.85
2016-05-09T11:51:10.523Z,25.82
2016-05-09T11:52:10.526Z,26.01
2016-05-09T11:53:10.373Z,25.97
2016-05-09T11:54:10.532Z,26.1
2016-05-09T11:55:10.378Z,25.99
2016-05-09T11:56:10.536Z,26.02
2016-05-09T11:57:10.555Z,25.9
2016-05-09T11:58:10.543Z,25.99
2016-05-09T11:59:10.561Z,25.99
2016-05-09T12:00:10.563Z,26.05
2016-05-09T12:01:10.566Z,25.99
2016-05-09T12:02:10.569Z,25.98
2016-05-09T12:03:10.572Z,26.07
2016-05-09T12:04:10.575Z,26.06
2016-05-09T12:05:10.280Z,26.18
2016-05-09T12:06:10.594Z,26.15
2016-05-09T12:07:10.582Z,26.1
2016-05-09T12:08:10.445Z,25.97
2016-05-09T12:09:10.603Z,26.05
2016-05-09T12:10:10.605Z,26.13
2016-05-09T12:11:10.624Z,26.12
2016-05-09T12:12:10.626Z,26.15
2016-05-09T12:13:10.630Z,25.98
2016-05-09T12:14:10.694Z,26.13
2016-05-09T12:15:10.479Z,26.15
2016-05-09T12:16:10.652Z,26.1
2016-05-09T12:17:10.655Z,25.97
2016-05-09T12:18:10.502Z,25.98
2016-05-09T12:19:10.505Z,25.83
2016-05-09T12:20:10.507Z,26.06
2016-05-09T12:21:10.682Z,25.87
2016-05-09T12:22:10.685Z,26.02
2016-05-09T12:23:10.704Z,25.88
2016-05-09T12:24:10.690Z,25.9
2016-05-09T12:25:10.551Z,25.87
2016-05-09T12:26:10.711Z,25.85
2016-05-09T12:27:10.714Z,25.9
2016-05-09T12:28:10.732Z,25.92
2016-05-09T12:29:10.923Z,25.9
2016-05-09T12:30:10.737Z,25.76
2016-05-09T12:31:10.740Z,25.85
2016-05-09T12:32:10.743Z,25.92
2016-05-09T12:33:10.778Z,25.94
2016-05-09T12:34:10.764Z,26.05
2016-05-09T12:35:10.595Z,25.95
2016-05-09T12:36:10.769Z,25.95
2016-05-09T12:37:10.756Z,25.85
2016-05-09T12:38:10.759Z,25.76
2016-05-09T12:39:10.761Z,25.83
2016-05-09T12:40:10.624Z,25.79
2016-05-09T12:41:10.783Z,25.94
2016-05-09T12:42:10.630Z,25.91
2016-05-09T12:43:10.632Z,25.76
2016-05-09T12:44:10.790Z,25.88
2016-05-09T12:45:10.794Z,25.91
2016-05-09T12:46:10.641Z,25.77
2016-05-09T12:47:10.643Z,25.76
2016-05-09T12:48:10.818Z,25.79
2016-05-09T12:49:10.804Z,25.85
2016-05-09T12:50:12.355Z,25.73
2016-05-09T12:51:10.810Z,25.77
2016-05-09T12:52:10.797Z,25.67
2016-05-09T12:53:10.487Z,25.62
2016-05-09T12:54:10.817Z,25.72
2016-05-09T12:55:10.508Z,25.97